﻿<?xml version="1.0" encoding="utf-8"?><gpx creator="Garmin Desktop App" version="1.1" xsi:schemaLocation="http://www.topografix.com/GPX/1/1 http://www.topografix.com/GPX/1/1/gpx.xsd http://www.garmin.com/xmlschemas/WaypointExtension/v1 http://www8.garmin.com/xmlschemas/WaypointExtensionv1.xsd http://www.garmin.com/xmlschemas/TrackPointExtension/v1 http://www.garmin.com/xmlschemas/TrackPointExtensionv1.xsd http://www.garmin.com/xmlschemas/GpxExtensions/v3 http://www8.garmin.com/xmlschemas/GpxExtensionsv3.xsd http://www.garmin.com/xmlschemas/ActivityExtension/v1 http://www8.garmin.com/xmlschemas/ActivityExtensionv1.xsd http://www.garmin.com/xmlschemas/AdventuresExtensions/v1 http://www8.garmin.com/xmlschemas/AdventuresExtensionv1.xsd http://www.garmin.com/xmlschemas/PressureExtension/v1 http://www.garmin.com/xmlschemas/PressureExtensionv1.xsd http://www.garmin.com/xmlschemas/TripExtensions/v1 http://www.garmin.com/xmlschemas/TripExtensionsv1.xsd http://www.garmin.com/xmlschemas/TripMetaDataExtensions/v1 http://www.garmin.com/xmlschemas/TripMetaDataExtensionsv1.xsd http://www.garmin.com/xmlschemas/ViaPointTransportationModeExtensions/v1 http://www.garmin.com/xmlschemas/ViaPointTransportationModeExtensionsv1.xsd http://www.garmin.com/xmlschemas/CreationTimeExtension/v1 http://www.garmin.com/xmlschemas/CreationTimeExtensionsv1.xsd http://www.garmin.com/xmlschemas/AccelerationExtension/v1 http://www.garmin.com/xmlschemas/AccelerationExtensionv1.xsd http://www.garmin.com/xmlschemas/PowerExtension/v1 http://www.garmin.com/xmlschemas/PowerExtensionv1.xsd http://www.garmin.com/xmlschemas/VideoExtension/v1 http://www.garmin.com/xmlschemas/VideoExtensionv1.xsd" xmlns="http://www.topografix.com/GPX/1/1" xmlns:xsi="http://www.w3.org/2001/XMLSchema-instance" xmlns:wptx1="http://www.garmin.com/xmlschemas/WaypointExtension/v1" xmlns:gpxtrx="http://www.garmin.com/xmlschemas/GpxExtensions/v3" xmlns:gpxtpx="http://www.garmin.com/xmlschemas/TrackPointExtension/v1" xmlns:gpxx="http://www.garmin.com/xmlschemas/GpxExtensions/v3" xmlns:trp="http://www.garmin.com/xmlschemas/TripExtensions/v1" xmlns:adv="http://www.garmin.com/xmlschemas/AdventuresExtensions/v1" xmlns:prs="http://www.garmin.com/xmlschemas/PressureExtension/v1" xmlns:tmd="http://www.garmin.com/xmlschemas/TripMetaDataExtensions/v1" xmlns:vptm="http://www.garmin.com/xmlschemas/ViaPointTransportationModeExtensions/v1" xmlns:ctx="http://www.garmin.com/xmlschemas/CreationTimeExtension/v1" xmlns:gpxacc="http://www.garmin.com/xmlschemas/AccelerationExtension/v1" xmlns:gpxpx="http://www.garmin.com/xmlschemas/PowerExtension/v1" xmlns:vidx1="http://www.garmin.com/xmlschemas/VideoExtension/v1">

  <metadata>
    <link href="http://www.garmin.com">
      <text>Garmin International</text>
    </link>
    <time>2024-07-28T17:43:11Z</time>
    <bounds maxlat="46.239937199279666" maxlon="8.016124712303281" minlat="46.211607791483402" minlon="7.972033554688096" />
  </metadata>

  <trk>
    <name>Laghi sirwoltersee2024-07-28</name>
    <extensions>
      <gpxx:TrackExtension>
        <gpxx:DisplayColor>Yellow</gpxx:DisplayColor>
      </gpxx:TrackExtension>
    </extensions>
    <trkseg>
      <trkpt lat="46.225368529558182" lon="8.015661779791117">
        <ele>1821.8299999999999</ele>
        <time>2024-07-28T06:39:38Z</time>
      </trkpt>
      <trkpt lat="46.225401805713773" lon="8.015373442322016">
        <ele>1822.51</ele>
        <time>2024-07-28T06:42:37Z</time>
      </trkpt>
      <trkpt lat="46.225349837914109" lon="8.01474136300385">
        <ele>1818.3599999999999</ele>
        <time>2024-07-28T06:43:27Z</time>
      </trkpt>
      <trkpt lat="46.225098883733153" lon="8.014196204021573">
        <ele>1813.3900000000001</ele>
        <time>2024-07-28T06:44:07Z</time>
      </trkpt>
      <trkpt lat="46.224922444671392" lon="8.014451516792178">
        <ele>1808.4300000000001</ele>
        <time>2024-07-28T06:44:52Z</time>
      </trkpt>
      <trkpt lat="46.22469705529511" lon="8.014939343556762">
        <ele>1808.03</ele>
        <time>2024-07-28T06:45:57Z</time>
      </trkpt>
      <trkpt lat="46.224334621801972" lon="8.015121314674616">
        <ele>1814.6500000000001</ele>
        <time>2024-07-28T06:46:42Z</time>
      </trkpt>
      <trkpt lat="46.224005296826363" lon="8.015043530613184">
        <ele>1817.4200000000001</ele>
        <time>2024-07-28T06:48:59Z</time>
      </trkpt>
      <trkpt lat="46.223768424242735" lon="8.014804562553763">
        <ele>1821.3699999999999</ele>
        <time>2024-07-28T06:50:46Z</time>
      </trkpt>
      <trkpt lat="46.223418982699513" lon="8.014450510963798">
        <ele>1823.3900000000001</ele>
        <time>2024-07-28T06:51:30Z</time>
      </trkpt>
      <trkpt lat="46.223056213930249" lon="8.014087993651629">
        <ele>1829.6300000000001</ele>
        <time>2024-07-28T06:52:47Z</time>
      </trkpt>
      <trkpt lat="46.222972394898534" lon="8.013452310115099">
        <ele>1828.8399999999999</ele>
        <time>2024-07-28T06:53:35Z</time>
      </trkpt>
      <trkpt lat="46.222919085994363" lon="8.012807741761208">
        <ele>1832.9200000000001</ele>
        <time>2024-07-28T06:54:19Z</time>
      </trkpt>
      <trkpt lat="46.222936771810055" lon="8.012397950515151">
        <ele>1839.0599999999999</ele>
        <time>2024-07-28T06:55:07Z</time>
      </trkpt>
      <trkpt lat="46.222868710756302" lon="8.01194247789681">
        <ele>1843.02</ele>
        <time>2024-07-28T06:55:51Z</time>
      </trkpt>
      <trkpt lat="46.222808863967657" lon="8.011480802670121">
        <ele>1848.78</ele>
        <time>2024-07-28T06:57:43Z</time>
      </trkpt>
      <trkpt lat="46.222686572000384" lon="8.010946707800031">
        <ele>1855.6900000000001</ele>
        <time>2024-07-28T06:58:43Z</time>
      </trkpt>
      <trkpt lat="46.222478114068508" lon="8.010555859655142">
        <ele>1866.1199999999999</ele>
        <time>2024-07-28T07:00:04Z</time>
      </trkpt>
      <trkpt lat="46.222136467695236" lon="8.010156210511923">
        <ele>1878.3099999999999</ele>
        <time>2024-07-28T07:01:48Z</time>
      </trkpt>
      <trkpt lat="46.221829187124968" lon="8.009691266342998">
        <ele>1891.8099999999999</ele>
        <time>2024-07-28T07:03:13Z</time>
      </trkpt>
      <trkpt lat="46.221568174660206" lon="8.009231435135007">
        <ele>1906.3599999999999</ele>
        <time>2024-07-28T07:04:56Z</time>
      </trkpt>
      <trkpt lat="46.221173638477921" lon="8.009236380457878">
        <ele>1921.5</ele>
        <time>2024-07-28T07:08:45Z</time>
      </trkpt>
      <trkpt lat="46.220827382057905" lon="8.008959190919995">
        <ele>1934.5599999999999</ele>
        <time>2024-07-28T07:10:19Z</time>
      </trkpt>
      <trkpt lat="46.220647674053907" lon="8.008364327251911">
        <ele>1947.72</ele>
        <time>2024-07-28T07:11:57Z</time>
      </trkpt>
      <trkpt lat="46.220432510599494" lon="8.007870800793171">
        <ele>1962.02</ele>
        <time>2024-07-28T07:13:36Z</time>
      </trkpt>
      <trkpt lat="46.220533093437552" lon="8.007391439750791">
        <ele>1973.03</ele>
        <time>2024-07-28T07:15:00Z</time>
      </trkpt>
      <trkpt lat="46.22019337490201" lon="8.007054487243295">
        <ele>1984.95</ele>
        <time>2024-07-28T07:16:28Z</time>
      </trkpt>
      <trkpt lat="46.219819039106369" lon="8.007053146138787">
        <ele>1998.03</ele>
        <time>2024-07-28T07:18:12Z</time>
      </trkpt>
      <trkpt lat="46.219480242580175" lon="8.007096732035279">
        <ele>2012.24</ele>
        <time>2024-07-28T07:20:00Z</time>
      </trkpt>
      <trkpt lat="46.219223253428936" lon="8.006700351834297">
        <ele>2029.23</ele>
        <time>2024-07-28T07:21:49Z</time>
      </trkpt>
      <trkpt lat="46.218982608988881" lon="8.006245214492083">
        <ele>2043.1700000000001</ele>
        <time>2024-07-28T07:23:38Z</time>
      </trkpt>
      <trkpt lat="46.218750178813934" lon="8.005977496504784">
        <ele>2058.52</ele>
        <time>2024-07-28T07:25:31Z</time>
      </trkpt>
      <trkpt lat="46.218656552955508" lon="8.005351033061743">
        <ele>2067.04</ele>
        <time>2024-07-28T07:26:54Z</time>
      </trkpt>
      <trkpt lat="46.218553958460689" lon="8.004844095557928">
        <ele>2081.4499999999998</ele>
        <time>2024-07-28T07:29:21Z</time>
      </trkpt>
      <trkpt lat="46.218399312347174" lon="8.004296002909541">
        <ele>2092.5599999999999</ele>
        <time>2024-07-28T07:31:32Z</time>
      </trkpt>
      <trkpt lat="46.218102173879743" lon="8.00380147062242">
        <ele>2094.29</ele>
        <time>2024-07-28T07:32:14Z</time>
      </trkpt>
      <trkpt lat="46.217923890799284" lon="8.003282379359007">
        <ele>2096.02</ele>
        <time>2024-07-28T07:36:25Z</time>
      </trkpt>
      <trkpt lat="46.217722473666072" lon="8.002785332500935">
        <ele>2098.2600000000002</ele>
        <time>2024-07-28T07:40:21Z</time>
      </trkpt>
      <trkpt lat="46.217400189489126" lon="8.002356430515647">
        <ele>2101.5300000000002</ele>
        <time>2024-07-28T07:41:15Z</time>
      </trkpt>
      <trkpt lat="46.216970533132553" lon="8.002121653407812">
        <ele>2109.3299999999999</ele>
        <time>2024-07-28T07:42:20Z</time>
      </trkpt>
      <trkpt lat="46.216591084375978" lon="8.001796770840883">
        <ele>2119.0500000000002</ele>
        <time>2024-07-28T07:44:01Z</time>
      </trkpt>
      <trkpt lat="46.21624474413693" lon="8.001447664573789">
        <ele>2132.4200000000001</ele>
        <time>2024-07-28T07:45:54Z</time>
      </trkpt>
      <trkpt lat="46.215902427211404" lon="8.001448167487979">
        <ele>2147.6999999999998</ele>
        <time>2024-07-28T07:47:32Z</time>
      </trkpt>
      <trkpt lat="46.215732274577022" lon="8.000852465629578">
        <ele>2153.1599999999999</ele>
        <time>2024-07-28T07:48:38Z</time>
      </trkpt>
      <trkpt lat="46.215328350663185" lon="8.000803263857961">
        <ele>2164.6599999999999</ele>
        <time>2024-07-28T07:50:04Z</time>
      </trkpt>
      <trkpt lat="46.215044455602765" lon="8.000732101500034">
        <ele>2180.5300000000002</ele>
        <time>2024-07-28T07:52:50Z</time>
      </trkpt>
      <trkpt lat="46.214719153940678" lon="8.001109203323722">
        <ele>2197.8699999999999</ele>
        <time>2024-07-28T07:54:20Z</time>
      </trkpt>
      <trkpt lat="46.214430397376418" lon="8.001302490010858">
        <ele>2215.0599999999999</ele>
        <time>2024-07-28T07:56:29Z</time>
      </trkpt>
      <trkpt lat="46.214393517002463" lon="8.001066790893674">
        <ele>2230.1199999999999</ele>
        <time>2024-07-28T07:58:32Z</time>
      </trkpt>
      <trkpt lat="46.214380944147706" lon="8.000615760684013">
        <ele>2245.4200000000001</ele>
        <time>2024-07-28T08:00:53Z</time>
      </trkpt>
      <trkpt lat="46.214268123731017" lon="8.000219631940126">
        <ele>2259.7600000000002</ele>
        <time>2024-07-28T08:02:24Z</time>
      </trkpt>
      <trkpt lat="46.214288910850883" lon="7.999749071896076">
        <ele>2271</ele>
        <time>2024-07-28T08:03:47Z</time>
      </trkpt>
      <trkpt lat="46.214316906407475" lon="7.999383118003607">
        <ele>2285.2399999999998</ele>
        <time>2024-07-28T08:05:58Z</time>
      </trkpt>
      <trkpt lat="46.214304333552718" lon="7.998895710334182">
        <ele>2304.3499999999999</ele>
        <time>2024-07-28T08:08:02Z</time>
      </trkpt>
      <trkpt lat="46.213889345526695" lon="7.998779956251383">
        <ele>2315.5700000000002</ele>
        <time>2024-07-28T08:10:03Z</time>
      </trkpt>
      <trkpt lat="46.213536886498332" lon="7.998771155253053">
        <ele>2332.48</ele>
        <time>2024-07-28T08:11:41Z</time>
      </trkpt>
      <trkpt lat="46.213257601484656" lon="7.998604187741876">
        <ele>2348.3400000000001</ele>
        <time>2024-07-28T08:13:35Z</time>
      </trkpt>
      <trkpt lat="46.21300857514143" lon="7.998421294614673">
        <ele>2360.6500000000001</ele>
        <time>2024-07-28T08:14:54Z</time>
      </trkpt>
      <trkpt lat="46.212848480790854" lon="7.99782601185143">
        <ele>2372.3400000000001</ele>
        <time>2024-07-28T08:16:28Z</time>
      </trkpt>
      <trkpt lat="46.212574895471334" lon="7.99810160882771">
        <ele>2386.9000000000001</ele>
        <time>2024-07-28T08:18:38Z</time>
      </trkpt>
      <trkpt lat="46.212307093665004" lon="7.997578242793679">
        <ele>2406.9099999999999</ele>
        <time>2024-07-28T08:21:17Z</time>
      </trkpt>
      <trkpt lat="46.212058402597904" lon="7.9977722838521">
        <ele>2410.1100000000001</ele>
        <time>2024-07-28T08:26:10Z</time>
      </trkpt>
      <trkpt lat="46.211757156997919" lon="7.997669773176312">
        <ele>2404.7399999999998</ele>
        <time>2024-07-28T08:29:06Z</time>
      </trkpt>
      <trkpt lat="46.211676187813282" lon="7.997194183990359">
        <ele>2409.77</ele>
        <time>2024-07-28T08:30:27Z</time>
      </trkpt>
      <trkpt lat="46.211607791483402" lon="7.996672745794058">
        <ele>2416.96</ele>
        <time>2024-07-28T08:31:45Z</time>
      </trkpt>
      <trkpt lat="46.211726563051343" lon="7.996097076684237">
        <ele>2422.5700000000002</ele>
        <time>2024-07-28T08:33:29Z</time>
      </trkpt>
      <trkpt lat="46.211879532784224" lon="7.995529873296619">
        <ele>2434.2399999999998</ele>
        <time>2024-07-28T08:34:57Z</time>
      </trkpt>
      <trkpt lat="46.211972907185555" lon="7.995412442833185">
        <ele>2441.1999999999998</ele>
        <time>2024-07-28T08:52:56Z</time>
      </trkpt>
      <trkpt lat="46.212266189977527" lon="7.995087057352066">
        <ele>2440.9499999999998</ele>
        <time>2024-07-28T08:57:39Z</time>
      </trkpt>
      <trkpt lat="46.212649745866656" lon="7.994693946093321">
        <ele>2436.77</ele>
        <time>2024-07-28T09:01:22Z</time>
      </trkpt>
      <trkpt lat="46.212968174368143" lon="7.994265127927065">
        <ele>2442</ele>
        <time>2024-07-28T09:02:15Z</time>
      </trkpt>
      <trkpt lat="46.213067751377821" lon="7.993632545694709">
        <ele>2446.7800000000002</ele>
        <time>2024-07-28T09:03:16Z</time>
      </trkpt>
      <trkpt lat="46.213168418034911" lon="7.993031227961183">
        <ele>2450.7600000000002</ele>
        <time>2024-07-28T09:04:45Z</time>
      </trkpt>
      <trkpt lat="46.213234048336744" lon="7.992971632629633">
        <ele>2451.04</ele>
        <time>2024-07-28T09:06:45Z</time>
      </trkpt>
      <trkpt lat="46.213247794657946" lon="7.992643062025309">
        <ele>2454.8200000000002</ele>
        <time>2024-07-28T09:08:12Z</time>
      </trkpt>
      <trkpt lat="46.213543843477964" lon="7.992176190018654">
        <ele>2453.4299999999998</ele>
        <time>2024-07-28T09:09:35Z</time>
      </trkpt>
      <trkpt lat="46.213932177051902" lon="7.991887014359236">
        <ele>2455.1199999999999</ele>
        <time>2024-07-28T09:10:21Z</time>
      </trkpt>
      <trkpt lat="46.214298466220498" lon="7.991554336622357">
        <ele>2457.0300000000002</ele>
        <time>2024-07-28T09:11:07Z</time>
      </trkpt>
      <trkpt lat="46.214639525860548" lon="7.991187041625381">
        <ele>2461.71</ele>
        <time>2024-07-28T09:11:59Z</time>
      </trkpt>
      <trkpt lat="46.214775564149022" lon="7.990596620365977">
        <ele>2467.23</ele>
        <time>2024-07-28T09:12:57Z</time>
      </trkpt>
      <trkpt lat="46.214731810614467" lon="7.989924810826778">
        <ele>2475.6500000000001</ele>
        <time>2024-07-28T09:13:58Z</time>
      </trkpt>
      <trkpt lat="46.214839182794094" lon="7.989359367638826">
        <ele>2485.3699999999999</ele>
        <time>2024-07-28T09:15:21Z</time>
      </trkpt>
      <trkpt lat="46.214892156422138" lon="7.988874390721321">
        <ele>2503.8800000000001</ele>
        <time>2024-07-28T09:17:40Z</time>
      </trkpt>
      <trkpt lat="46.214980250224471" lon="7.988363765180111">
        <ele>2517.71</ele>
        <time>2024-07-28T09:19:26Z</time>
      </trkpt>
      <trkpt lat="46.214972119778395" lon="7.987769404426217">
        <ele>2522.6300000000001</ele>
        <time>2024-07-28T09:20:36Z</time>
      </trkpt>
      <trkpt lat="46.215007239952683" lon="7.987170685082674">
        <ele>2535.4000000000001</ele>
        <time>2024-07-28T09:21:49Z</time>
      </trkpt>
      <trkpt lat="46.215194994583726" lon="7.98658118583262">
        <ele>2546.75</ele>
        <time>2024-07-28T09:23:06Z</time>
      </trkpt>
      <trkpt lat="46.215564636513591" lon="7.986806742846966">
        <ele>2555.98</ele>
        <time>2024-07-28T09:24:21Z</time>
      </trkpt>
      <trkpt lat="46.21586948633194" lon="7.987173367291689">
        <ele>2565.9200000000001</ele>
        <time>2024-07-28T09:25:33Z</time>
      </trkpt>
      <trkpt lat="46.216132091358304" lon="7.986966334283352">
        <ele>2579.3299999999999</ele>
        <time>2024-07-28T09:26:48Z</time>
      </trkpt>
      <trkpt lat="46.2164690438658" lon="7.986735915765166">
        <ele>2586.6999999999998</ele>
        <time>2024-07-28T09:28:00Z</time>
      </trkpt>
      <trkpt lat="46.216672221198678" lon="7.986209867522121">
        <ele>2586.6900000000001</ele>
        <time>2024-07-28T09:28:54Z</time>
      </trkpt>
      <trkpt lat="46.216599298641086" lon="7.985635371878743">
        <ele>2590.8200000000002</ele>
        <time>2024-07-28T09:30:08Z</time>
      </trkpt>
      <trkpt lat="46.216750759631395" lon="7.985033048316836">
        <ele>2596.77</ele>
        <time>2024-07-28T09:31:02Z</time>
      </trkpt>
      <trkpt lat="46.216812366619706" lon="7.98437456600368">
        <ele>2603.1700000000001</ele>
        <time>2024-07-28T09:31:58Z</time>
      </trkpt>
      <trkpt lat="46.217008335515857" lon="7.983786491677165">
        <ele>2613.1199999999999</ele>
        <time>2024-07-28T09:33:32Z</time>
      </trkpt>
      <trkpt lat="46.217292984947562" lon="7.983312830328941">
        <ele>2621.23</ele>
        <time>2024-07-28T09:34:42Z</time>
      </trkpt>
      <trkpt lat="46.217565648257732" lon="7.982835564762354">
        <ele>2621.9899999999998</ele>
        <time>2024-07-28T09:36:31Z</time>
      </trkpt>
      <trkpt lat="46.217735800892115" lon="7.982657449319959">
        <ele>2615.21</ele>
        <time>2024-07-28T09:42:50Z</time>
      </trkpt>
      <trkpt lat="46.21781132183969" lon="7.982137016952038">
        <ele>2601.6300000000001</ele>
        <time>2024-07-28T09:44:21Z</time>
      </trkpt>
      <trkpt lat="46.217536646872759" lon="7.981669725850225">
        <ele>2594.7600000000002</ele>
        <time>2024-07-28T09:45:15Z</time>
      </trkpt>
      <trkpt lat="46.217254595831037" lon="7.981195980682969">
        <ele>2587.8000000000002</ele>
        <time>2024-07-28T09:46:08Z</time>
      </trkpt>
      <trkpt lat="46.217180164530873" lon="7.980657778680325">
        <ele>2581.21</ele>
        <time>2024-07-28T09:50:47Z</time>
      </trkpt>
      <trkpt lat="46.216983357444406" lon="7.980653420090675">
        <ele>2579.2399999999998</ele>
        <time>2024-07-28T10:36:32Z</time>
      </trkpt>
      <trkpt lat="46.21672703884542" lon="7.980327364057303">
        <ele>2565.1900000000001</ele>
        <time>2024-07-28T10:38:54Z</time>
      </trkpt>
      <trkpt lat="46.216530818492174" lon="7.979787737131119">
        <ele>2553.6199999999999</ele>
        <time>2024-07-28T10:39:43Z</time>
      </trkpt>
      <trkpt lat="46.216602064669132" lon="7.979159848764539">
        <ele>2548.4699999999998</ele>
        <time>2024-07-28T10:40:19Z</time>
      </trkpt>
      <trkpt lat="46.216666689142585" lon="7.978519890457392">
        <ele>2545.0599999999999</ele>
        <time>2024-07-28T10:40:55Z</time>
      </trkpt>
      <trkpt lat="46.216677753254771" lon="7.977873394265771">
        <ele>2541.8099999999999</ele>
        <time>2024-07-28T10:41:31Z</time>
      </trkpt>
      <trkpt lat="46.216823849827051" lon="7.977256318554282">
        <ele>2536.1399999999999</ele>
        <time>2024-07-28T10:42:16Z</time>
      </trkpt>
      <trkpt lat="46.21698453091085" lon="7.976681739091873">
        <ele>2530.6900000000001</ele>
        <time>2024-07-28T10:45:36Z</time>
      </trkpt>
      <trkpt lat="46.217220481485128" lon="7.976119481027126">
        <ele>2524.8000000000002</ele>
        <time>2024-07-28T10:46:49Z</time>
      </trkpt>
      <trkpt lat="46.217640163376927" lon="7.976091066375375">
        <ele>2518.3000000000002</ele>
        <time>2024-07-28T10:47:45Z</time>
      </trkpt>
      <trkpt lat="46.218064958229661" lon="7.975871544331312">
        <ele>2512.48</ele>
        <time>2024-07-28T10:48:31Z</time>
      </trkpt>
      <trkpt lat="46.218456141650677" lon="7.975524952635169">
        <ele>2507.3099999999999</ele>
        <time>2024-07-28T10:49:11Z</time>
      </trkpt>
      <trkpt lat="46.218844475224614" lon="7.975220857188106">
        <ele>2500.9899999999998</ele>
        <time>2024-07-28T10:49:53Z</time>
      </trkpt>
      <trkpt lat="46.219259966164827" lon="7.975008124485612">
        <ele>2496.9299999999998</ele>
        <time>2024-07-28T10:50:50Z</time>
      </trkpt>
      <trkpt lat="46.219693729653955" lon="7.9749552346766">
        <ele>2491.0999999999999</ele>
        <time>2024-07-28T10:51:55Z</time>
      </trkpt>
      <trkpt lat="46.220139814540744" lon="7.97489513643086">
        <ele>2483.5799999999999</ele>
        <time>2024-07-28T10:52:53Z</time>
      </trkpt>
      <trkpt lat="46.220510713756084" lon="7.974535133689642">
        <ele>2480.6500000000001</ele>
        <time>2024-07-28T10:54:32Z</time>
      </trkpt>
      <trkpt lat="46.220899298787117" lon="7.974261548370123">
        <ele>2476.5900000000001</ele>
        <time>2024-07-28T10:55:47Z</time>
      </trkpt>
      <trkpt lat="46.221338259056211" lon="7.974275629967451">
        <ele>2473.2800000000002</ele>
        <time>2024-07-28T10:56:21Z</time>
      </trkpt>
      <trkpt lat="46.221783421933651" lon="7.974206730723381">
        <ele>2469.5</ele>
        <time>2024-07-28T10:56:55Z</time>
      </trkpt>
      <trkpt lat="46.222102018073201" lon="7.974560195580125">
        <ele>2465.9899999999998</ele>
        <time>2024-07-28T10:58:06Z</time>
      </trkpt>
      <trkpt lat="46.222513653337955" lon="7.974811987951398">
        <ele>2466.5</ele>
        <time>2024-07-28T10:58:52Z</time>
      </trkpt>
      <trkpt lat="46.222976250573993" lon="7.97489270567894">
        <ele>2464.8600000000001</ele>
        <time>2024-07-28T10:59:33Z</time>
      </trkpt>
      <trkpt lat="46.223412109538913" lon="7.974764462560415">
        <ele>2463.2600000000002</ele>
        <time>2024-07-28T11:00:18Z</time>
      </trkpt>
      <trkpt lat="46.2237598747015" lon="7.97437378205359">
        <ele>2460.75</ele>
        <time>2024-07-28T11:00:59Z</time>
      </trkpt>
      <trkpt lat="46.224183579906821" lon="7.974187536165118">
        <ele>2458.2199999999998</ele>
        <time>2024-07-28T11:01:41Z</time>
      </trkpt>
      <trkpt lat="46.224625473842025" lon="7.974014533683658">
        <ele>2456.7800000000002</ele>
        <time>2024-07-28T11:02:27Z</time>
      </trkpt>
      <trkpt lat="46.224953625351191" lon="7.97359392978251">
        <ele>2454.7800000000002</ele>
        <time>2024-07-28T11:03:12Z</time>
      </trkpt>
      <trkpt lat="46.225252607837319" lon="7.973146755248308">
        <ele>2452.1799999999998</ele>
        <time>2024-07-28T11:04:08Z</time>
      </trkpt>
      <trkpt lat="46.22569877654314" lon="7.973036533221602">
        <ele>2449.3099999999999</ele>
        <time>2024-07-28T11:04:57Z</time>
      </trkpt>
      <trkpt lat="46.22613413259387" lon="7.97315614297986">
        <ele>2447.0599999999999</ele>
        <time>2024-07-28T11:05:39Z</time>
      </trkpt>
      <trkpt lat="46.226415177807212" lon="7.973656207323074">
        <ele>2442.2199999999998</ele>
        <time>2024-07-28T11:06:19Z</time>
      </trkpt>
      <trkpt lat="46.226713322103024" lon="7.973957536742091">
        <ele>2437.6100000000001</ele>
        <time>2024-07-28T11:08:38Z</time>
      </trkpt>
      <trkpt lat="46.227060751989484" lon="7.974286777898669">
        <ele>2433.1700000000001</ele>
        <time>2024-07-28T11:09:22Z</time>
      </trkpt>
      <trkpt lat="46.227364679798484" lon="7.974687851965427">
        <ele>2431.0500000000002</ele>
        <time>2024-07-28T11:10:17Z</time>
      </trkpt>
      <trkpt lat="46.227723760530353" lon="7.974933609366417">
        <ele>2429.9499999999998</ele>
        <time>2024-07-28T11:11:00Z</time>
      </trkpt>
      <trkpt lat="46.228088205680251" lon="7.975200489163399">
        <ele>2422.0799999999999</ele>
        <time>2024-07-28T11:12:02Z</time>
      </trkpt>
      <trkpt lat="46.228494644165039" lon="7.975477259606123">
        <ele>2411.6100000000001</ele>
        <time>2024-07-28T11:13:04Z</time>
      </trkpt>
      <trkpt lat="46.228905944153666" lon="7.975755538791418">
        <ele>2401.3600000000001</ele>
        <time>2024-07-28T11:13:54Z</time>
      </trkpt>
      <trkpt lat="46.229352951049805" lon="7.975868359208107">
        <ele>2395.0300000000002</ele>
        <time>2024-07-28T11:14:37Z</time>
      </trkpt>
      <trkpt lat="46.229767184704542" lon="7.975780433043838">
        <ele>2387.1999999999998</ele>
        <time>2024-07-28T11:15:30Z</time>
      </trkpt>
      <trkpt lat="46.230087373405695" lon="7.975339964032173">
        <ele>2380.8800000000001</ele>
        <time>2024-07-28T11:16:28Z</time>
      </trkpt>
      <trkpt lat="46.230383086949587" lon="7.974857166409493">
        <ele>2381.8499999999999</ele>
        <time>2024-07-28T11:17:08Z</time>
      </trkpt>
      <trkpt lat="46.230813078582287" lon="7.974648540839553">
        <ele>2384.4499999999998</ele>
        <time>2024-07-28T11:17:52Z</time>
      </trkpt>
      <trkpt lat="46.231198059394956" lon="7.97429415397346">
        <ele>2386.6700000000001</ele>
        <time>2024-07-28T11:18:33Z</time>
      </trkpt>
      <trkpt lat="46.231474578380585" lon="7.973778583109379">
        <ele>2386.4400000000001</ele>
        <time>2024-07-28T11:19:16Z</time>
      </trkpt>
      <trkpt lat="46.231785211712122" lon="7.973303999751806">
        <ele>2391.9400000000001</ele>
        <time>2024-07-28T11:20:11Z</time>
      </trkpt>
      <trkpt lat="46.232188800349832" lon="7.972995629534125">
        <ele>2395.3200000000002</ele>
        <time>2024-07-28T11:21:06Z</time>
      </trkpt>
      <trkpt lat="46.232569506391883" lon="7.972676027566195">
        <ele>2399.1599999999999</ele>
        <time>2024-07-28T11:22:23Z</time>
      </trkpt>
      <trkpt lat="46.232995223253965" lon="7.97279111109674">
        <ele>2400.7399999999998</ele>
        <time>2024-07-28T11:23:14Z</time>
      </trkpt>
      <trkpt lat="46.233269143849611" lon="7.972512915730476">
        <ele>2400.98</ele>
        <time>2024-07-28T11:23:54Z</time>
      </trkpt>
      <trkpt lat="46.233681030571461" lon="7.972244778648019">
        <ele>2400.02</ele>
        <time>2024-07-28T11:24:35Z</time>
      </trkpt>
      <trkpt lat="46.233967188745737" lon="7.972033554688096">
        <ele>2400.8499999999999</ele>
        <time>2024-07-28T11:28:43Z</time>
      </trkpt>
      <trkpt lat="46.234385948628187" lon="7.972122570499778">
        <ele>2397.1900000000001</ele>
        <time>2024-07-28T11:29:37Z</time>
      </trkpt>
      <trkpt lat="46.234798757359385" lon="7.972383331507444">
        <ele>2398.5</ele>
        <time>2024-07-28T11:30:18Z</time>
      </trkpt>
      <trkpt lat="46.235185330733657" lon="7.97270217910409">
        <ele>2396.6300000000001</ele>
        <time>2024-07-28T11:30:57Z</time>
      </trkpt>
      <trkpt lat="46.235513733699918" lon="7.973164189606905">
        <ele>2395.9200000000001</ele>
        <time>2024-07-28T11:31:37Z</time>
      </trkpt>
      <trkpt lat="46.235828557983041" lon="7.973495190963149">
        <ele>2389.8000000000002</ele>
        <time>2024-07-28T11:32:56Z</time>
      </trkpt>
      <trkpt lat="46.236059814691544" lon="7.974011516198516">
        <ele>2390.8299999999999</ele>
        <time>2024-07-28T11:33:47Z</time>
      </trkpt>
      <trkpt lat="46.236308086663485" lon="7.974501689895988">
        <ele>2392.0900000000001</ele>
        <time>2024-07-28T11:34:31Z</time>
      </trkpt>
      <trkpt lat="46.236612182110548" lon="7.974896896630526">
        <ele>2393.27</ele>
        <time>2024-07-28T11:35:21Z</time>
      </trkpt>
      <trkpt lat="46.23698609881103" lon="7.975107617676258">
        <ele>2393.0700000000002</ele>
        <time>2024-07-28T11:36:14Z</time>
      </trkpt>
      <trkpt lat="46.237288601696491" lon="7.975583961233497">
        <ele>2392.8099999999999</ele>
        <time>2024-07-28T11:36:55Z</time>
      </trkpt>
      <trkpt lat="46.237535113468766" lon="7.976133059710264">
        <ele>2389.46</ele>
        <time>2024-07-28T11:37:52Z</time>
      </trkpt>
      <trkpt lat="46.237872149795294" lon="7.976560033857822">
        <ele>2389.4099999999999</ele>
        <time>2024-07-28T11:39:45Z</time>
      </trkpt>
      <trkpt lat="46.238276744261384" lon="7.976831020787358">
        <ele>2394.9400000000001</ele>
        <time>2024-07-28T11:40:37Z</time>
      </trkpt>
      <trkpt lat="46.238595256581903" lon="7.977263443171978">
        <ele>2400.1199999999999</ele>
        <time>2024-07-28T11:41:27Z</time>
      </trkpt>
      <trkpt lat="46.23882818967104" lon="7.977822180837393">
        <ele>2401.3899999999999</ele>
        <time>2024-07-28T11:42:16Z</time>
      </trkpt>
      <trkpt lat="46.239056512713432" lon="7.978362143039703">
        <ele>2406.6300000000001</ele>
        <time>2024-07-28T11:43:08Z</time>
      </trkpt>
      <trkpt lat="46.239343676716089" lon="7.978781824931502">
        <ele>2409.96</ele>
        <time>2024-07-28T11:44:03Z</time>
      </trkpt>
      <trkpt lat="46.239586668089032" lon="7.97932161949575">
        <ele>2417.6900000000001</ele>
        <time>2024-07-28T11:44:59Z</time>
      </trkpt>
      <trkpt lat="46.239878023043275" lon="7.97979854978621">
        <ele>2423.5900000000001</ele>
        <time>2024-07-28T11:45:54Z</time>
      </trkpt>
      <trkpt lat="46.239937199279666" lon="7.980156540870667">
        <ele>2420.9499999999998</ele>
        <time>2024-07-28T12:01:35Z</time>
      </trkpt>
      <trkpt lat="46.239823792129755" lon="7.980780238285661">
        <ele>2420.8499999999999</ele>
        <time>2024-07-28T12:02:22Z</time>
      </trkpt>
      <trkpt lat="46.239578621461987" lon="7.981352973729372">
        <ele>2420.0500000000002</ele>
        <time>2024-07-28T12:03:07Z</time>
      </trkpt>
      <trkpt lat="46.23928508721292" lon="7.981847925111651">
        <ele>2419.5300000000002</ele>
        <time>2024-07-28T12:03:55Z</time>
      </trkpt>
      <trkpt lat="46.239098673686385" lon="7.982423258945346">
        <ele>2415.6100000000001</ele>
        <time>2024-07-28T12:04:41Z</time>
      </trkpt>
      <trkpt lat="46.238816706463695" lon="7.98290622420609">
        <ele>2407.27</ele>
        <time>2024-07-28T12:05:40Z</time>
      </trkpt>
      <trkpt lat="46.238441783934832" lon="7.982860878109932">
        <ele>2398.1999999999998</ele>
        <time>2024-07-28T12:07:44Z</time>
      </trkpt>
      <trkpt lat="46.238050013780594" lon="7.982915360480547">
        <ele>2392.6500000000001</ele>
        <time>2024-07-28T12:08:36Z</time>
      </trkpt>
      <trkpt lat="46.237676097080112" lon="7.983253737911582">
        <ele>2390.6999999999998</ele>
        <time>2024-07-28T12:09:40Z</time>
      </trkpt>
      <trkpt lat="46.23725775629282" lon="7.983420537784696">
        <ele>2391.2399999999998</ele>
        <time>2024-07-28T12:10:24Z</time>
      </trkpt>
      <trkpt lat="46.236885264515877" lon="7.983733015134931">
        <ele>2382.79</ele>
        <time>2024-07-28T12:11:15Z</time>
      </trkpt>
      <trkpt lat="46.236634561792016" lon="7.984240874648094">
        <ele>2380.9299999999998</ele>
        <time>2024-07-28T12:12:02Z</time>
      </trkpt>
      <trkpt lat="46.236446471884847" lon="7.98477865755558">
        <ele>2377.0700000000002</ele>
        <time>2024-07-28T12:12:55Z</time>
      </trkpt>
      <trkpt lat="46.236379584297538" lon="7.985409395769239">
        <ele>2372.9200000000001</ele>
        <time>2024-07-28T12:13:50Z</time>
      </trkpt>
      <trkpt lat="46.236056126654148" lon="7.985834861174226">
        <ele>2370.48</ele>
        <time>2024-07-28T12:14:42Z</time>
      </trkpt>
      <trkpt lat="46.235672403126955" lon="7.986129401251674">
        <ele>2367.1300000000001</ele>
        <time>2024-07-28T12:15:44Z</time>
      </trkpt>
      <trkpt lat="46.235474338755012" lon="7.986655700951815">
        <ele>2364.8099999999999</ele>
        <time>2024-07-28T12:16:47Z</time>
      </trkpt>
      <trkpt lat="46.235183654353023" lon="7.98678888939321">
        <ele>2364.46</ele>
        <time>2024-07-28T12:17:43Z</time>
      </trkpt>
      <trkpt lat="46.235131351277232" lon="7.987150568515062">
        <ele>2344.4499999999998</ele>
        <time>2024-07-28T12:18:57Z</time>
      </trkpt>
      <trkpt lat="46.234749723225832" lon="7.987425830215216">
        <ele>2340.9000000000001</ele>
        <time>2024-07-28T12:22:02Z</time>
      </trkpt>
      <trkpt lat="46.234415201470256" lon="7.987839393317699">
        <ele>2339.9000000000001</ele>
        <time>2024-07-28T12:22:58Z</time>
      </trkpt>
      <trkpt lat="46.234161648899317" lon="7.988360160961747">
        <ele>2335.6900000000001</ele>
        <time>2024-07-28T12:23:42Z</time>
      </trkpt>
      <trkpt lat="46.233888147398829" lon="7.988889394327998">
        <ele>2330.8699999999999</ele>
        <time>2024-07-28T12:24:30Z</time>
      </trkpt>
      <trkpt lat="46.23355689458549" lon="7.989275632426143">
        <ele>2325.5999999999999</ele>
        <time>2024-07-28T12:25:16Z</time>
      </trkpt>
      <trkpt lat="46.233181050047278" lon="7.989334976300597">
        <ele>2319.54</ele>
        <time>2024-07-28T12:26:22Z</time>
      </trkpt>
      <trkpt lat="46.232793387025595" lon="7.989436900243163">
        <ele>2312.1199999999999</ele>
        <time>2024-07-28T12:27:21Z</time>
      </trkpt>
      <trkpt lat="46.232502786442637" lon="7.989786760881543">
        <ele>2299.4099999999999</ele>
        <time>2024-07-28T12:28:28Z</time>
      </trkpt>
      <trkpt lat="46.23218385502696" lon="7.990198731422424">
        <ele>2291.04</ele>
        <time>2024-07-28T12:29:17Z</time>
      </trkpt>
      <trkpt lat="46.231786804273725" lon="7.990431077778339">
        <ele>2283.2199999999998</ele>
        <time>2024-07-28T12:30:18Z</time>
      </trkpt>
      <trkpt lat="46.231380365788937" lon="7.99067004583776">
        <ele>2277.8899999999999</ele>
        <time>2024-07-28T12:31:17Z</time>
      </trkpt>
      <trkpt lat="46.231067217886448" lon="7.990937177091837">
        <ele>2275.8600000000001</ele>
        <time>2024-07-28T12:32:08Z</time>
      </trkpt>
      <trkpt lat="46.231041820719838" lon="7.991556767374277">
        <ele>2272.27</ele>
        <time>2024-07-28T12:37:08Z</time>
      </trkpt>
      <trkpt lat="46.231109295040369" lon="7.992204772308469">
        <ele>2271.8000000000002</ele>
        <time>2024-07-28T12:38:02Z</time>
      </trkpt>
      <trkpt lat="46.231254804879427" lon="7.992814891040325">
        <ele>2266.5300000000002</ele>
        <time>2024-07-28T12:38:51Z</time>
      </trkpt>
      <trkpt lat="46.231393693014979" lon="7.993413526564837">
        <ele>2258.0999999999999</ele>
        <time>2024-07-28T12:39:49Z</time>
      </trkpt>
      <trkpt lat="46.231313729658723" lon="7.994060106575489">
        <ele>2248.6999999999998</ele>
        <time>2024-07-28T12:40:38Z</time>
      </trkpt>
      <trkpt lat="46.23116746544838" lon="7.994665112346411">
        <ele>2237.5300000000002</ele>
        <time>2024-07-28T12:41:33Z</time>
      </trkpt>
      <trkpt lat="46.230941405519843" lon="7.995249917730689">
        <ele>2230.46</ele>
        <time>2024-07-28T12:42:21Z</time>
      </trkpt>
      <trkpt lat="46.230913493782282" lon="7.995829107239842">
        <ele>2224.21</ele>
        <time>2024-07-28T12:43:11Z</time>
      </trkpt>
      <trkpt lat="46.231234353035688" lon="7.996176034212112">
        <ele>2221.98</ele>
        <time>2024-07-28T12:44:57Z</time>
      </trkpt>
      <trkpt lat="46.231547333300114" lon="7.996539557352662">
        <ele>2208.6700000000001</ele>
        <time>2024-07-28T12:45:41Z</time>
      </trkpt>
      <trkpt lat="46.231926027685404" lon="7.99673636443913">
        <ele>2200.6700000000001</ele>
        <time>2024-07-28T12:46:23Z</time>
      </trkpt>
      <trkpt lat="46.232321066781878" lon="7.996988911181688">
        <ele>2190.9000000000001</ele>
        <time>2024-07-28T12:47:08Z</time>
      </trkpt>
      <trkpt lat="46.232672855257988" lon="7.997408006340265">
        <ele>2187.3299999999999</ele>
        <time>2024-07-28T12:47:53Z</time>
      </trkpt>
      <trkpt lat="46.232936047017574" lon="7.997937658801675">
        <ele>2178.02</ele>
        <time>2024-07-28T12:49:55Z</time>
      </trkpt>
      <trkpt lat="46.232886090874672" lon="7.998561272397637">
        <ele>2169.02</ele>
        <time>2024-07-28T12:51:07Z</time>
      </trkpt>
      <trkpt lat="46.232615355402231" lon="7.999047925695777">
        <ele>2154.75</ele>
        <time>2024-07-28T12:52:12Z</time>
      </trkpt>
      <trkpt lat="46.232308074831963" lon="7.999493507668376">
        <ele>2143.0300000000002</ele>
        <time>2024-07-28T12:53:10Z</time>
      </trkpt>
      <trkpt lat="46.231992831453681" lon="7.999895755201578">
        <ele>2135.6199999999999</ele>
        <time>2024-07-28T12:54:07Z</time>
      </trkpt>
      <trkpt lat="46.231604162603617" lon="8.000129191204906">
        <ele>2125.3699999999999</ele>
        <time>2024-07-28T12:55:05Z</time>
      </trkpt>
      <trkpt lat="46.231338623911142" lon="8.000491289421916">
        <ele>2115.21</ele>
        <time>2024-07-28T12:56:13Z</time>
      </trkpt>
      <trkpt lat="46.231009718030691" lon="8.000895297154784">
        <ele>2104.8899999999999</ele>
        <time>2024-07-28T12:57:14Z</time>
      </trkpt>
      <trkpt lat="46.230609649792314" lon="8.001136528328061">
        <ele>2094.7800000000002</ele>
        <time>2024-07-28T12:58:05Z</time>
      </trkpt>
      <trkpt lat="46.230615181848407" lon="8.00143014639616">
        <ele>2082.8800000000001</ele>
        <time>2024-07-28T12:59:27Z</time>
      </trkpt>
      <trkpt lat="46.230297423899174" lon="8.001612536609173">
        <ele>2070.2800000000002</ele>
        <time>2024-07-28T13:00:33Z</time>
      </trkpt>
      <trkpt lat="46.230620881542563" lon="8.001920403912664">
        <ele>2058.6300000000001</ele>
        <time>2024-07-28T13:01:32Z</time>
      </trkpt>
      <trkpt lat="46.230858340859413" lon="8.001987459138036">
        <ele>2049.6100000000001</ele>
        <time>2024-07-28T13:02:33Z</time>
      </trkpt>
      <trkpt lat="46.230865968391299" lon="8.002176973968744">
        <ele>2040.46</ele>
        <time>2024-07-28T13:03:22Z</time>
      </trkpt>
      <trkpt lat="46.231262097135186" lon="8.002407224848867">
        <ele>2030.96</ele>
        <time>2024-07-28T13:04:14Z</time>
      </trkpt>
      <trkpt lat="46.231702649965882" lon="8.002529097720981">
        <ele>2020.8399999999999</ele>
        <time>2024-07-28T13:05:07Z</time>
      </trkpt>
      <trkpt lat="46.232112105935812" lon="8.002695227041841">
        <ele>2009.3099999999999</ele>
        <time>2024-07-28T13:06:06Z</time>
      </trkpt>
      <trkpt lat="46.232330370694399" lon="8.002766724675894">
        <ele>2001.5699999999999</ele>
        <time>2024-07-28T13:07:03Z</time>
      </trkpt>
      <trkpt lat="46.231943126767874" lon="8.003036286681891">
        <ele>1994.3599999999999</ele>
        <time>2024-07-28T13:07:49Z</time>
      </trkpt>
      <trkpt lat="46.231585722416639" lon="8.003409449011087">
        <ele>1986.22</ele>
        <time>2024-07-28T13:08:40Z</time>
      </trkpt>
      <trkpt lat="46.231543058529496" lon="8.00369443371892">
        <ele>1975.04</ele>
        <time>2024-07-28T13:09:39Z</time>
      </trkpt>
      <trkpt lat="46.231982437893748" lon="8.003811445087194">
        <ele>1965.0699999999999</ele>
        <time>2024-07-28T13:10:36Z</time>
      </trkpt>
      <trkpt lat="46.231718240305781" lon="8.004202879965305">
        <ele>1955.6400000000001</ele>
        <time>2024-07-28T13:11:40Z</time>
      </trkpt>
      <trkpt lat="46.231290679425001" lon="8.004437489435077">
        <ele>1948.1700000000001</ele>
        <time>2024-07-28T13:12:42Z</time>
      </trkpt>
      <trkpt lat="46.230840487405658" lon="8.004649383947253">
        <ele>1941.21</ele>
        <time>2024-07-28T13:13:37Z</time>
      </trkpt>
      <trkpt lat="46.23039205558598" lon="8.004876198247075">
        <ele>1933.8900000000001</ele>
        <time>2024-07-28T13:14:34Z</time>
      </trkpt>
      <trkpt lat="46.230784999206662" lon="8.005171827971935">
        <ele>1922.23</ele>
        <time>2024-07-28T13:15:49Z</time>
      </trkpt>
      <trkpt lat="46.230832524597645" lon="8.005376178771257">
        <ele>1912.03</ele>
        <time>2024-07-28T13:16:51Z</time>
      </trkpt>
      <trkpt lat="46.230679722502828" lon="8.005516827106476">
        <ele>1904.3</ele>
        <time>2024-07-28T13:18:00Z</time>
      </trkpt>
      <trkpt lat="46.231052633374929" lon="8.005796866491437">
        <ele>1895.4200000000001</ele>
        <time>2024-07-28T13:19:03Z</time>
      </trkpt>
      <trkpt lat="46.231490420177579" lon="8.005899880081415">
        <ele>1884.97</ele>
        <time>2024-07-28T13:20:13Z</time>
      </trkpt>
      <trkpt lat="46.231796275824308" lon="8.006168939173222">
        <ele>1875.04</ele>
        <time>2024-07-28T13:21:14Z</time>
      </trkpt>
      <trkpt lat="46.232017977163196" lon="8.006425676867366">
        <ele>1870.5699999999999</ele>
        <time>2024-07-28T13:22:30Z</time>
      </trkpt>
      <trkpt lat="46.232083020731807" lon="8.007042584940791">
        <ele>1865.3099999999999</ele>
        <time>2024-07-28T13:27:41Z</time>
      </trkpt>
      <trkpt lat="46.232249736785889" lon="8.00761129707098">
        <ele>1858.25</ele>
        <time>2024-07-28T13:28:42Z</time>
      </trkpt>
      <trkpt lat="46.232469594106078" lon="8.008062327280641">
        <ele>1853.3299999999999</ele>
        <time>2024-07-28T13:30:11Z</time>
      </trkpt>
      <trkpt lat="46.23258107341826" lon="8.008633470162749">
        <ele>1851.79</ele>
        <time>2024-07-28T13:30:57Z</time>
      </trkpt>
      <trkpt lat="46.232278235256672" lon="8.008764144033194">
        <ele>1851.8399999999999</ele>
        <time>2024-07-28T13:35:37Z</time>
      </trkpt>
      <trkpt lat="46.231904234737158" lon="8.008595583960414">
        <ele>1856.8499999999999</ele>
        <time>2024-07-28T13:38:27Z</time>
      </trkpt>
      <trkpt lat="46.231567617505789" lon="8.008928680792451">
        <ele>1858.0999999999999</ele>
        <time>2024-07-28T13:39:22Z</time>
      </trkpt>
      <trkpt lat="46.231188420206308" lon="8.009303351864219">
        <ele>1855.96</ele>
        <time>2024-07-28T13:40:09Z</time>
      </trkpt>
      <trkpt lat="46.230732779949903" lon="8.009462188929319">
        <ele>1852.54</ele>
        <time>2024-07-28T13:41:02Z</time>
      </trkpt>
      <trkpt lat="46.230270098894835" lon="8.009676011279225">
        <ele>1845.6800000000001</ele>
        <time>2024-07-28T13:42:02Z</time>
      </trkpt>
      <trkpt lat="46.229747822508216" lon="8.009822778403759">
        <ele>1842.8900000000001</ele>
        <time>2024-07-28T13:42:55Z</time>
      </trkpt>
      <trkpt lat="46.229413049295545" lon="8.010295098647475">
        <ele>1842.1400000000001</ele>
        <time>2024-07-28T13:43:49Z</time>
      </trkpt>
      <trkpt lat="46.229303916916251" lon="8.010937822982669">
        <ele>1841.1900000000001</ele>
        <time>2024-07-28T13:44:36Z</time>
      </trkpt>
      <trkpt lat="46.22933023609221" lon="8.011591862887144">
        <ele>1840.4100000000001</ele>
        <time>2024-07-28T13:45:19Z</time>
      </trkpt>
      <trkpt lat="46.229282962158322" lon="8.011971060186625">
        <ele>1838.54</ele>
        <time>2024-07-28T13:46:10Z</time>
      </trkpt>
      <trkpt lat="46.228991271927953" lon="8.01240767352283">
        <ele>1836.95</ele>
        <time>2024-07-28T13:47:02Z</time>
      </trkpt>
      <trkpt lat="46.22846681624651" lon="8.012190666049719">
        <ele>1834.74</ele>
        <time>2024-07-28T13:47:54Z</time>
      </trkpt>
      <trkpt lat="46.227987622842193" lon="8.012005425989628">
        <ele>1833.72</ele>
        <time>2024-07-28T13:48:42Z</time>
      </trkpt>
      <trkpt lat="46.227523349225521" lon="8.012398034334183">
        <ele>1834.28</ele>
        <time>2024-07-28T13:49:35Z</time>
      </trkpt>
      <trkpt lat="46.227064020931721" lon="8.012694418430328">
        <ele>1830.5999999999999</ele>
        <time>2024-07-28T13:50:22Z</time>
      </trkpt>
      <trkpt lat="46.226663198322058" lon="8.013071436434984">
        <ele>1825.5899999999999</ele>
        <time>2024-07-28T13:51:09Z</time>
      </trkpt>
      <trkpt lat="46.226232955232263" lon="8.01294713281095">
        <ele>1824.75</ele>
        <time>2024-07-28T13:52:00Z</time>
      </trkpt>
      <trkpt lat="46.225790977478027" lon="8.013130277395248">
        <ele>1819.3599999999999</ele>
        <time>2024-07-28T13:53:09Z</time>
      </trkpt>
      <trkpt lat="46.225432986393571" lon="8.013715166598558">
        <ele>1821.3599999999999</ele>
        <time>2024-07-28T13:54:09Z</time>
      </trkpt>
      <trkpt lat="46.22531614266336" lon="8.014272646978498">
        <ele>1815.1199999999999</ele>
        <time>2024-07-28T13:55:07Z</time>
      </trkpt>
      <trkpt lat="46.225449582561851" lon="8.014837671071291">
        <ele>1815.54</ele>
        <time>2024-07-28T13:55:58Z</time>
      </trkpt>
      <trkpt lat="46.225441284477711" lon="8.015216365456581">
        <ele>1817.24</ele>
        <time>2024-07-28T13:56:27Z</time>
      </trkpt>
      <trkpt lat="46.225371630862355" lon="8.015641160309315">
        <ele>1817.24</ele>
        <time>2024-07-28T13:57:11Z</time>
      </trkpt>
      <trkpt lat="46.225256379693747" lon="8.016124712303281">
        <ele>1824.71</ele>
        <time>2024-07-28T13:58:35Z</time>
      </trkpt>
    </trkseg>
  </trk>

</gpx>